Time;durP1;ratioP1;P1;durP2;ratioP2;P2;SDS_P1;SDS_P2;PMS_P1;PMS_P2;Temp;Humidity;BMP_temperature;BMP_pressure;BME280_temperature;BME280_humidity;BME280_pressure;Samples;Min_cycle;Max_cycle;Signal;HPM_P1;HPM_P2
2022/07/04 00:00:17;;;;;;;3.75;3.40;;;;;;;23.35;66.30;98482.34;5021570;28;20184;-57
2022/07/04 00:02:43;;;;;;;4.05;3.42;;;;;;;23.24;66.28;98482.84;5019603;28;20206;-57
2022/07/04 00:05:10;;;;;;;4.20;3.83;;;;;;;23.11;67.69;98487.88;5012285;28;20198;-57
2022/07/04 00:07:37;;;;;;;3.78;3.47;;;;;;;23.23;65.99;98486.47;5024373;28;20189;-57
2022/07/04 00:10:04;;;;;;;6.07;3.70;;;;;;;23.20;67.33;98486.84;5024763;28;20197;-57
2022/07/04 00:12:30;;;;;;;4.00;3.63;;;;;;;23.04;68.16;98482.53;5017406;28;20885;-57
2022/07/04 00:14:55;;;;;;;3.95;3.55;;;;;;;23.06;67.72;98477.03;5017568;28;20681;-57
2022/07/04 00:17:21;;;;;;;7.15;4.00;;;;;;;22.89;68.23;98480.88;5022210;28;20721;-57
2022/07/04 00:19:46;;;;;;;3.90;2.97;;;;;;;23.01;68.50;98474.16;5018727;28;20178;-57
2022/07/04 00:22:12;;;;;;;4.15;3.75;;;;;;;23.21;67.06;98483.19;5022740;28;20552;-58
2022/07/04 00:24:38;;;;;;;4.30;3.20;;;;;;;23.44;62.96;98483.91;5023365;28;20260;-57
2022/07/04 00:27:04;;;;;;;4.22;3.92;;;;;;;23.31;64.62;98470.53;5024180;28;20547;-57
2022/07/04 00:29:29;;;;;;;3.70;3.30;;;;;;;23.24;65.75;98473.09;5022730;28;20185;-58
2022/07/04 00:31:55;;;;;;;12.57;3.80;;;;;;;23.04;65.75;98460.59;5018885;28;20239;-58
2022/07/04 00:34:20;;;;;;;5.03;3.72;;;;;;;22.92;66.45;98472.59;5016171;28;20863;-58
2022/07/04 00:36:46;;;;;;;5.00;3.53;;;;;;;22.73;67.54;98473.91;5017912;28;20243;-58
2022/07/04 00:39:11;;;;;;;4.82;3.25;;;;;;;22.67;67.12;98458.00;5020698;28;20181;-58
2022/07/04 00:41:37;;;;;;;3.70;3.40;;;;;;;22.97;65.17;98464.94;5014521;28;20666;-58
2022/07/04 00:44:04;;;;;;;6.07;3.38;;;;;;;22.73;66.37;98465.19;5015098;28;20631;-57
2022/07/04 00:46:30;;;;;;;3.10;2.90;;;;;;;22.47;67.37;98464.78;5019933;28;20193;-57
2022/07/04 00:48:56;;;;;;;3.70;3.30;;;;;;;22.36;67.30;98459.88;5020585;28;20219;-57
2022/07/04 00:51:23;;;;;;;5.18;3.58;;;;;;;22.20;68.16;98450.28;5007419;28;20182;-57
2022/07/04 00:53:49;;;;;;;6.15;3.40;;;;;;;21.91;69.60;98455.44;5009891;28;20260;-58
2022/07/04 00:56:16;;;;;;;5.25;3.72;;;;;;;21.80;70.14;98460.31;4997236;28;20269;-58
2022/07/04 00:58:41;;;;;;;4.97;3.42;;;;;;;21.64;70.81;98447.19;5018409;28;20177;-58
2022/07/04 01:01:06;;;;;;;3.92;3.63;;;;;;;21.87;69.82;98455.97;5026618;28;20215;-57
2022/07/04 01:03:32;;;;;;;3.83;3.50;;;;;;;21.89;69.86;98453.97;5021911;28;20184;-57
2022/07/04 01:05:59;;;;;;;5.68;3.95;;;;;;;21.70;71.09;98451.78;5014223;28;20210;-57
2022/07/04 01:08:25;;;;;;;3.78;3.47;;;;;;;21.70;70.87;98446.53;5025365;28;20572;-58
2022/07/04 01:10:52;;;;;;;5.72;3.72;;;;;;;21.33;71.72;98441.09;5023642;28;20698;-58
2022/07/04 01:13:24;;;;;;;4.32;3.58;;;;;;;21.24;72.19;98447.38;5010799;28;20198;-57
2022/07/04 01:15:50;;;;;;;3.63;3.10;;;;;;;20.99;72.76;98443.19;5016110;28;20302;-57
2022/07/04 01:18:17;;;;;;;3.63;3.33;;;;;;;21.06;72.71;98445.00;5016768;28;20189;-57
2022/07/04 01:20:42;;;;;;;3.85;3.55;;;;;;;21.11;72.00;98436.59;5015530;28;20605;-57
2022/07/04 01:23:08;;;;;;;3.83;3.47;;;;;;;21.25;71.88;98431.44;5019594;28;20641;-58
2022/07/04 01:25:33;;;;;;;3.60;3.30;;;;;;;21.30;72.50;98433.53;5022197;28;20260;-57
2022/07/04 01:28:00;;;;;;;3.08;2.88;;;;;;;21.52;71.17;98432.78;5021151;28;20658;-57
2022/07/04 01:30:26;;;;;;;4.43;3.67;;;;;;;21.56;71.24;98434.88;5013811;28;20577;-57
2022/07/04 01:32:52;;;;;;;3.50;3.30;;;;;;;21.62;69.58;98430.75;5022458;28;20186;-57
2022/07/04 01:35:17;;;;;;;3.40;3.08;;;;;;;21.63;70.27;98435.03;5006328;28;20174;-57
2022/07/04 01:37:43;;;;;;;6.07;3.20;;;;;;;21.62;70.50;98430.75;5015446;28;20178;-58
2022/07/04 01:40:08;;;;;;;6.82;3.20;;;;;;;21.70;69.48;98422.81;5017984;28;20648;-57
2022/07/04 01:42:34;;;;;;;3.50;3.20;;;;;;;21.37;71.06;98413.44;5019974;28;20197;-57
2022/07/04 01:44:59;;;;;;;3.83;3.47;;;;;;;20.99;72.52;98403.75;5017766;28;20201;-57
2022/07/04 01:47:26;;;;;;;3.45;3.25;;;;;;;21.20;71.57;98412.69;5017456;28;20178;-57
2022/07/04 01:49:51;;;;;;;3.05;2.85;;;;;;;21.25;71.03;98420.91;5014658;28;20277;-57
2022/07/04 01:52:17;;;;;;;3.60;3.33;;;;;;;21.35;69.96;98424.16;5010638;28;20645;-57
2022/07/04 01:54:42;;;;;;;5.30;3.33;;;;;;;21.10;71.53;98419.16;5026383;28;20180;-57
2022/07/04 01:57:07;;;;;;;5.38;3.05;;;;;;;21.00;71.59;98413.25;5001350;28;20699;-57
2022/07/04 02:02:17;;;;;;;6.57;3.00;;;;;;;21.06;71.23;98421.31;5018095;28;20288;-57
2022/07/04 02:04:43;;;;;;;3.28;2.92;;;;;;;21.10;71.09;98419.16;5022509;28;20173;-57
2022/07/04 02:07:08;;;;;;;5.70;3.08;;;;;;;20.97;71.45;98418.88;5018566;28;20190;-57
2022/07/04 02:09:34;;;;;;;3.53;3.20;;;;;;;21.16;69.18;98415.84;5025514;28;20177;-57
2022/07/04 02:14:43;;;;;;;3.45;2.85;;;;;;;21.10;69.32;98424.41;5024437;28;20678;-57
2022/07/04 02:17:09;;;;;;;3.35;2.80;;;;;;;21.18;68.24;98414.69;5023357;28;20276;-58
2022/07/04 02:19:35;;;;;;;5.15;3.20;;;;;;;21.07;68.31;98415.06;4998955;28;20197;-58
2022/07/04 02:22:01;;;;;;;2.85;2.65;;;;;;;21.28;68.01;98422.38;5000535;28;20603;-57
2022/07/04 02:24:26;;;;;;;3.28;3.05;;;;;;;21.21;68.32;98429.31;5012189;28;20214;-58
2022/07/04 02:26:51;;;;;;;3.50;2.85;;;;;;;21.35;68.00;98418.06;5015924;28;20651;-58
2022/07/04 02:29:17;;;;;;;4.03;2.90;;;;;;;21.49;67.41;98433.94;5014872;28;20194;-57
2022/07/04 02:31:43;;;;;;;5.25;3.05;;;;;;;21.54;67.02;98436.03;5018206;28;20193;-57
2022/07/04 02:34:09;;;;;;;3.20;3.00;;;;;;;21.46;67.30;98436.09;5023122;28;20680;-59
2022/07/04 02:36:34;;;;;;;4.40;3.17;;;;;;;21.25;68.62;98425.31;5011785;28;20638;-57
2022/07/04 02:39:00;;;;;;;4.93;3.10;;;;;;;21.13;68.73;98442.47;5011266;28;20200;-57
2022/07/04 02:41:26;;;;;;;5.88;3.22;;;;;;;21.27;68.18;98433.91;4999376;28;20676;-57
2022/07/04 02:43:52;;;;;;;13.25;3.40;;;;;;;21.08;69.26;98450.06;5000822;28;20206;-57
2022/07/04 02:46:17;;;;;;;10.60;3.20;;;;;;;20.91;70.23;98453.72;5019528;28;20216;-57
2022/07/04 02:48:43;;;;;;;5.78;3.80;;;;;;;20.86;71.11;98451.56;5013205;28;20179;-57
2022/07/04 02:51:08;;;;;;;3.55;3.17;;;;;;;21.09;69.22;98459.63;5021948;28;20658;-57
2022/07/04 02:53:33;;;;;;;9.20;3.10;;;;;;;20.99;70.33;98462.41;5010699;28;20272;-57
2022/07/04 02:56:03;;;;;;;6.38;2.88;;;;;;;21.03;69.16;98452.41;5024215;28;20188;-57
2022/07/04 02:58:29;;;;;;;7.20;4.07;;;;;;;20.82;70.22;98465.25;5009587;28;20241;-57
2022/07/04 03:00:54;;;;;;;9.25;3.97;;;;;;;20.70;71.31;98463.94;5017696;28;20233;-57
2022/07/04 03:03:20;;;;;;;4.55;3.83;;;;;;;20.55;72.30;98462.97;5018623;28;20178;-57
2022/07/04 03:05:45;;;;;;;3.83;3.03;;;;;;;20.56;72.66;98464.59;5017600;28;20206;-57
2022/07/04 03:08:10;;;;;;;5.30;2.90;;;;;;;20.71;72.36;98462.97;5016325;28;20236;-57
2022/07/04 03:10:36;;;;;;;4.97;3.65;;;;;;;21.10;70.78;98463.91;5018705;28;21100;-57
2022/07/04 03:13:01;;;;;;;4.22;3.03;;;;;;;21.21;69.85;98471.44;5022547;28;20185;-57
2022/07/04 03:15:27;;;;;;;3.28;2.72;;;;;;;21.30;69.93;98455.44;5016454;28;20682;-57
2022/07/04 03:17:52;;;;;;;4.03;3.10;;;;;;;21.31;70.92;98469.38;5017445;28;20623;-57
2022/07/04 03:20:17;;;;;;;5.43;3.00;;;;;;;21.42;70.36;98475.13;5021643;28;20188;-56
2022/07/04 03:22:43;;;;;;;4.22;2.85;;;;;;;21.56;69.69;98473.59;4997512;28;20190;-57
2022/07/04 03:25:08;;;;;;;4.85;3.90;;;;;;;21.68;69.87;98470.41;4999075;28;20202;-57
2022/07/04 03:27:34;;;;;;;7.57;3.55;;;;;;;21.81;69.76;98470.69;5007517;28;20761;-57
2022/07/04 03:29:59;;;;;;;6.75;3.88;;;;;;;21.94;68.44;98470.91;5014181;28;20182;-57
2022/07/04 03:32:24;;;;;;;6.95;3.85;;;;;;;22.11;66.83;98469.81;5016782;28;20186;-57
2022/07/04 03:34:50;;;;;;;8.05;3.63;;;;;;;22.28;66.34;98468.69;5017343;28;20190;-57
2022/07/04 03:37:15;;;;;;;3.28;2.95;;;;;;;22.37;67.58;98474.72;5026612;28;20541;-57
2022/07/04 03:39:40;;;;;;;7.63;3.63;;;;;;;22.36;66.45;98470.44;5015130;28;20186;-57
2022/07/04 03:42:06;;;;;;;6.38;3.35;;;;;;;22.19;68.16;98438.13;5002911;28;20182;-57
2022/07/04 03:44:31;;;;;;;6.78;3.38;;;;;;;22.57;67.19;98466.19;5017159;28;20336;-57
2022/07/04 03:46:58;;;;;;;4.00;3.28;;;;;;;22.61;65.60;98458.72;5019080;28;20192;-57
2022/07/04 03:49:24;;;;;;;5.40;3.70;;;;;;;22.84;63.74;98462.94;5018115;28;20186;-57
2022/07/04 03:51:49;;;;;;;4.28;3.67;;;;;;;22.96;63.36;98466.75;5025028;28;20239;-57
2022/07/04 03:54:15;;;;;;;4.10;3.03;;;;;;;23.12;62.45;98468.41;5026595;28;20593;-57
2022/07/04 03:56:40;;;;;;;4.47;3.50;;;;;;;23.21;61.92;98467.34;5022063;28;20541;-57
2022/07/04 03:59:06;;;;;;;3.33;3.03;;;;;;;23.24;62.08;98467.81;5022187;28;20674;-59
2022/07/04 04:01:31;;;;;;;3.83;3.08;;;;;;;23.31;61.08;98465.25;5026162;28;20221;-57
2022/07/04 04:06:41;;;;;;;4.05;3.40;;;;;;;23.40;60.56;98466.78;5017739;28;20209;-57
2022/07/04 04:09:06;;;;;;;3.78;3.45;;;;;;;23.30;60.91;98467.06;5021248;28;20185;-57
2022/07/04 04:11:31;;;;;;;4.70;3.45;;;;;;;23.19;61.24;98469.38;5025276;28;20581;-57
2022/07/04 04:13:57;;;;;;;5.65;3.80;;;;;;;23.23;61.63;98467.97;5011151;28;20178;-56
2022/07/04 04:16:22;;;;;;;6.25;3.90;;;;;;;23.09;61.57;98458.22;5017424;28;20240;-57
2022/07/04 04:18:48;;;;;;;3.75;3.45;;;;;;;23.10;62.49;98457.22;5019171;28;20193;-58
2022/07/04 04:21:13;;;;;;;3.90;3.47;;;;;;;23.10;62.06;98460.69;5015493;28;20260;-58
2022/07/04 04:23:38;;;;;;;3.70;3.40;;;;;;;23.04;62.73;98455.31;5014489;28;20896;-58
2022/07/04 04:26:04;;;;;;;6.60;3.88;;;;;;;22.95;62.97;98456.41;4997225;28;20209;-57
2022/07/04 04:28:29;;;;;;;7.00;3.85;;;;;;;22.95;62.31;98456.41;4998385;28;20183;-57
2022/07/04 04:30:55;;;;;;;3.47;3.25;;;;;;;22.97;62.89;98454.41;5023906;28;20189;-57
2022/07/04 04:33:20;;;;;;;6.55;3.58;;;;;;;23.03;63.25;98456.31;5013618;28;20179;-57
2022/07/04 04:35:45;;;;;;;4.97;3.40;;;;;;;23.10;62.56;98465.97;5024609;28;20253;-57
2022/07/04 04:38:11;;;;;;;6.25;3.63;;;;;;;23.25;61.72;98468.63;5014298;28;20591;-57
2022/07/04 04:40:36;;;;;;;4.03;3.63;;;;;;;23.36;60.73;98470.81;5022422;28;20974;-57
2022/07/04 04:43:02;;;;;;;6.63;3.92;;;;;;;23.52;60.23;98478.50;5009832;28;20205;-57
2022/07/04 04:45:27;;;;;;;9.38;4.30;;;;;;;23.61;60.12;98470.28;5011725;28;20259;-57
2022/07/04 04:47:53;;;;;;;11.60;4.18;;;;;;;23.71;60.26;98475.31;5016543;28;20181;-57
2022/07/04 04:50:20;;;;;;;5.40;4.10;;;;;;;23.83;60.25;98475.44;5019008;28;20264;-57
2022/07/04 04:52:45;;;;;;;11.95;4.32;;;;;;;23.84;59.73;98478.91;5023745;28;21231;-57
2022/07/04 04:55:10;;;;;;;5.47;4.20;;;;;;;23.71;60.05;98481.41;5011654;28;20253;-57
2022/07/04 04:57:36;;;;;;;4.43;3.65;;;;;;;23.67;61.06;98477.50;5009054;28;20188;-58
2022/07/04 05:00:04;;;;;;;3.90;3.30;;;;;;;23.82;59.72;98473.00;5015795;28;20576;-58
2022/07/04 05:02:29;;;;;;;8.13;3.88;;;;;;;24.06;59.10;98483.25;5022977;28;20615;-58
2022/07/04 05:04:55;;;;;;;6.78;3.47;;;;;;;24.08;59.40;98475.13;5016773;28;20210;-59
2022/07/04 05:07:20;;;;;;;6.70;3.33;;;;;;;24.12;59.00;98481.69;4997260;28;20187;-58
2022/07/04 05:09:46;;;;;;;3.70;3.33;;;;;;;24.14;59.03;98483.94;5012264;28;20194;-59
2022/07/04 05:12:11;;;;;;;4.00;3.78;;;;;;;24.20;58.84;98475.25;5006788;28;20708;-58
2022/07/04 05:14:36;;;;;;;3.95;3.47;;;;;;;24.23;58.48;98482.00;5018747;28;20692;-59
2022/07/04 05:17:02;;;;;;;4.85;3.42;;;;;;;24.32;57.59;98486.16;5010825;28;20181;-59
2022/07/04 05:19:28;;;;;;;4.47;3.70;;;;;;;24.34;57.67;98484.97;5018565;28;20549;-59
2022/07/04 05:21:53;;;;;;;7.97;3.50;;;;;;;24.46;57.75;98486.09;5012577;28;20560;-59
2022/07/04 05:24:18;;;;;;;6.78;3.20;;;;;;;24.40;57.60;98475.44;5024329;28;20261;-59
2022/07/04 05:26:44;;;;;;;6.10;3.72;;;;;;;24.46;57.39;98479.97;5018053;28;20214;-58
2022/07/04 05:29:09;;;;;;;4.95;3.70;;;;;;;24.59;57.63;98488.03;5014441;28;20186;-59
2022/07/04 05:31:35;;;;;;;4.05;3.60;;;;;;;24.67;56.95;98483.44;5015873;28;20199;-59
2022/07/04 05:34:00;;;;;;;4.93;4.20;;;;;;;24.85;56.85;98489.06;5015538;28;20183;-59
2022/07/04 05:36:26;;;;;;;5.25;3.42;;;;;;;24.83;56.29;98479.69;5013874;28;20785;-58
2022/07/04 05:38:52;;;;;;;8.75;4.00;;;;;;;25.01;55.92;98472.09;5023186;28;20184;-59
2022/07/04 05:41:17;;;;;;;4.22;3.47;;;;;;;24.92;55.35;98466.13;5021048;28;20188;-59
2022/07/04 05:43:43;;;;;;;9.10;4.18;;;;;;;25.08;55.51;98468.44;5014251;28;20185;-59
2022/07/04 05:46:09;;;;;;;8.35;3.97;;;;;;;25.30;55.35;98475.34;5027464;28;20206;-58
2022/07/04 05:48:35;;;;;;;4.05;3.42;;;;;;;25.33;55.24;98472.31;5005325;28;20277;-59
2022/07/04 05:51:00;;;;;;;7.80;3.45;;;;;;;25.52;55.17;98476.03;5015502;28;20248;-59
2022/07/04 05:53:26;;;;;;;7.70;4.05;;;;;;;25.50;53.77;98439.16;5020316;28;20173;-60
2022/07/04 05:55:52;;;;;;;12.80;4.45;;;;;;;25.89;53.06;98476.38;5010027;28;20189;-59
2022/07/04 05:58:18;;;;;;;11.40;4.00;;;;;;;25.99;52.77;98466.25;5021880;28;20186;-58
2022/07/04 06:00:43;;;;;;;6.07;4.35;;;;;;;26.15;51.93;98473.84;5023704;28;20206;-58
2022/07/04 06:03:09;;;;;;;9.13;4.15;;;;;;;26.28;51.36;98468.53;5027774;28;20185;-58
2022/07/04 06:05:34;;;;;;;6.28;4.40;;;;;;;26.36;50.81;98476.31;5025300;28;20589;-60
2022/07/04 06:08:01;;;;;;;14.90;5.10;;;;;;;26.46;50.91;98479.38;5016636;28;20221;-58
2022/07/04 06:10:27;;;;;;;15.02;4.60;;;;;;;26.57;51.14;98486.78;5018978;28;20185;-59
2022/07/04 06:12:52;;;;;;;9.63;5.05;;;;;;;26.70;51.13;98483.31;5019165;28;20190;-59
2022/07/04 06:15:18;;;;;;;6.30;3.97;;;;;;;26.76;51.16;98472.66;5022984;28;20177;-58
2022/07/04 06:17:43;;;;;;;12.20;5.18;;;;;;;26.73;51.47;98473.09;5011654;28;20612;-58
2022/07/04 06:20:09;;;;;;;7.82;4.55;;;;;;;26.80;52.05;98473.91;5014027;28;20185;-59
2022/07/04 06:22:43;;;;;;;7.43;4.10;;;;;;;26.86;52.58;98478.38;5024356;28;20670;-58
2022/07/04 06:25:26;;;;;;;10.85;4.38;;;;;;;26.81;52.63;98480.00;5021398;28;20263;-59
2022/07/04 06:27:52;;;;;;;14.02;4.15;;;;;;;26.94;52.63;98474.69;5020750;28;20169;-59
2022/07/04 06:30:18;;;;;;;5.72;4.97;;;;;;;27.05;52.54;98476.72;5011003;28;20881;-59
2022/07/04 06:32:52;;;;;;;9.77;4.45;;;;;;;26.85;52.27;98475.94;5017942;28;20768;-59
2022/07/04 06:38:05;;;;;;;9.57;4.45;;;;;;;27.01;52.15;98476.31;5020808;28;20243;-59
2022/07/04 06:40:31;;;;;;;4.10;3.80;;;;;;;27.12;52.31;98472.22;5016339;28;20192;-59
2022/07/04 06:42:56;;;;;;;7.00;4.20;;;;;;;27.12;52.80;98467.69;5025839;28;20181;-59
2022/07/04 06:45:22;;;;;;;12.55;4.30;;;;;;;27.19;53.50;98473.88;5019049;28;20614;-59
2022/07/04 06:47:47;;;;;;;6.45;4.15;;;;;;;27.23;53.77;98464.44;5025627;28;20259;-58
2022/07/04 06:50:13;;;;;;;10.85;3.83;;;;;;;27.37;53.56;98463.38;5008206;28;20179;-59
2022/07/04 06:52:38;;;;;;;8.23;4.07;;;;;;;27.46;53.53;98469.28;5018370;28;20185;-59
2022/07/04 06:55:05;;;;;;;6.13;3.92;;;;;;;27.56;53.44;98466.97;5019206;28;20173;-58
2022/07/04 06:57:30;;;;;;;8.52;3.55;;;;;;;27.63;52.20;98463.28;5023469;28;20189;-59
2022/07/04 06:59:56;;;;;;;6.10;3.40;;;;;;;27.61;50.93;98446.72;5014045;28;20638;-58
2022/07/04 07:02:21;;;;;;;4.88;3.55;;;;;;;27.69;51.15;98449.13;5015147;28;20221;-59
2022/07/04 07:04:46;;;;;;;6.65;3.50;;;;;;;27.72;50.80;98443.41;5017692;28;20286;-59
2022/07/04 07:07:12;;;;;;;3.45;3.15;;;;;;;27.78;51.10;98455.06;5018702;28;20190;-59
2022/07/04 07:09:37;;;;;;;5.63;3.30;;;;;;;27.86;50.88;98447.66;5020199;28;20208;-59
2022/07/04 07:12:03;;;;;;;7.72;3.50;;;;;;;27.99;49.34;98444.91;5012722;28;20186;-58
2022/07/04 07:14:29;;;;;;;6.00;3.25;;;;;;;28.05;49.51;98453.88;4997883;28;21055;-58
2022/07/04 07:16:55;;;;;;;7.50;3.50;;;;;;;28.10;49.05;98454.06;4999418;28;20189;-58
2022/07/04 07:19:20;;;;;;;9.05;3.80;;;;;;;28.17;49.20;98452.16;5017599;28;20572;-58
2022/07/04 07:21:46;;;;;;;6.50;3.60;;;;;;;28.22;48.33;98452.34;5025451;28;20185;-58
2022/07/04 07:24:11;;;;;;;7.32;3.70;;;;;;;28.29;47.05;98443.25;5018596;28;20178;-58
2022/07/04 07:26:37;;;;;;;6.15;2.92;;;;;;;28.23;46.90;98436.13;5018153;28;20204;-58
2022/07/04 07:29:02;;;;;;;5.18;3.25;;;;;;;28.29;47.26;98440.59;5020757;28;20181;-58
2022/07/04 07:31:28;;;;;;;8.85;2.85;;;;;;;28.35;47.43;98449.59;5022140;28;20681;-58
2022/07/04 07:33:54;;;;;;;6.80;3.50;;;;;;;28.42;46.62;98451.19;5021219;28;20240;-58
2022/07/04 07:36:19;;;;;;;8.10;3.50;;;;;;;28.48;45.67;98446.84;5017941;28;20180;-58
2022/07/04 07:38:44;;;;;;;5.30;3.03;;;;;;;28.49;46.01;98443.97;5018252;28;20235;-59
2022/07/04 07:41:10;;;;;;;10.82;3.30;;;;;;;28.50;45.59;98445.59;5013827;28;20181;-58
2022/07/04 07:43:36;;;;;;;7.95;3.20;;;;;;;28.50;46.05;98437.59;5021781;28;20655;-58
2022/07/04 07:46:06;;;;;;;7.32;3.45;;;;;;;28.53;45.51;98444.34;5010038;28;20283;-58
2022/07/04 07:48:32;;;;;;;7.28;3.67;;;;;;;28.59;45.24;98452.28;5021545;28;20190;-58
2022/07/04 07:50:57;;;;;;;4.65;3.28;;;;;;;28.63;45.69;98453.47;5025672;28;20921;-58
2022/07/04 07:53:23;;;;;;;8.52;3.15;;;;;;;28.70;45.82;98440.94;5015854;28;20184;-58
2022/07/04 07:55:48;;;;;;;6.90;3.45;;;;;;;28.79;45.18;98439.59;5000244;28;20182;-58
2022/07/04 07:58:14;;;;;;;3.88;3.00;;;;;;;28.82;44.79;98441.84;4998088;28;20870;-59
2022/07/04 08:00:39;;;;;;;5.78;3.15;;;;;;;28.82;45.15;98436.50;5003985;28;20209;-58
2022/07/04 08:05:49;;;;;;;9.38;3.40;;;;;;;28.78;45.07;98435.31;5014743;28;20321;-58
2022/07/04 08:08:14;;;;;;;4.47;3.35;;;;;;;28.88;44.43;98435.63;5014250;28;20182;-58
2022/07/04 08:10:39;;;;;;;8.00;3.67;;;;;;;28.89;44.11;98431.94;5012073;28;20175;-58
2022/07/04 08:13:05;;;;;;;5.55;3.20;;;;;;;29.00;44.15;98433.06;5019424;28;20584;-58
2022/07/04 08:15:31;;;;;;;4.20;3.03;;;;;;;29.11;43.75;98437.66;5015444;28;20213;-58
2022/07/04 08:17:58;;;;;;;7.00;3.70;;;;;;;29.14;44.01;98429.25;5016359;28;20410;-59
2022/07/04 08:20:23;;;;;;;8.32;3.67;;;;;;;29.15;43.87;98425.53;5018461;28;20188;-58
2022/07/04 08:22:48;;;;;;;3.88;3.22;;;;;;;29.17;43.28;98432.28;5015270;28;20187;-58
2022/07/04 08:25:14;;;;;;;7.38;3.22;;;;;;;29.24;43.27;98425.00;5023933;28;20647;-58
2022/07/04 08:27:41;;;;;;;3.85;3.42;;;;;;;29.32;41.93;98432.69;5019039;28;20186;-58
2022/07/04 08:30:08;;;;;;;9.77;3.00;;;;;;;29.10;41.68;98396.88;5010716;28;20265;-59
2022/07/04 08:32:33;;;;;;;7.03;3.55;;;;;;;29.32;41.67;98415.91;5020224;28;20190;-58
2022/07/04 08:34:59;;;;;;;3.60;3.28;;;;;;;29.45;41.28;98424.53;5017305;28;20721;-59
2022/07/04 08:37:25;;;;;;;7.97;3.17;;;;;;;29.52;40.78;98417.28;5000671;28;20948;-58
2022/07/04 08:39:50;;;;;;;5.18;3.20;;;;;;;29.64;39.34;98426.19;4996239;28;20218;-58
2022/07/04 08:42:18;;;;;;;4.25;2.72;;;;;;;29.69;39.46;98426.34;5018337;28;20721;-59
2022/07/04 08:44:56;;;;;;;3.60;3.00;;;;;;;29.76;38.74;98427.06;5015810;28;20178;-58
2022/07/04 08:47:24;;;;;;;5.30;2.60;;;;;;;29.84;37.37;98429.41;5015585;28;20201;-58
2022/07/04 08:49:59;;;;;;;3.92;2.78;;;;;;;29.93;35.13;98440.56;5013563;28;20277;-58
2022/07/04 08:52:39;;;;;;;3.08;2.78;;;;;;;29.88;36.34;98432.41;5020083;28;20182;-58
2022/07/04 09:00:38;;;;;;;7.00;2.78;;;;;;;30.11;34.25;98444.03;5016487;28;21093;-58
2022/07/04 09:03:04;;;;;;;2.22;2.05;;;;;;;30.11;31.95;98433.34;5017718;28;20670;-58
2022/07/04 09:05:32;;;;;;;2.40;2.20;;;;;;;30.02;28.54;98436.56;5009399;28;20682;-58
2022/07/04 09:07:58;;;;;;;2.75;1.85;;;;;;;30.09;27.23;98435.41;5012683;28;20181;-58
2022/07/04 09:10:25;;;;;;;2.85;2.10;;;;;;;30.08;29.31;98432.97;5018172;28;20697;-58
2022/07/04 09:12:50;;;;;;;2.38;1.83;;;;;;;30.12;29.22;98426.97;5019379;28;20187;-58
2022/07/04 09:15:16;;;;;;;4.10;2.08;;;;;;;30.16;27.82;98428.16;5017008;28;20182;-58
2022/07/04 09:17:42;;;;;;;6.30;2.30;;;;;;;30.12;30.25;98404.78;5027151;28;20269;-58
2022/07/04 09:20:20;;;;;;;2.38;2.25;;;;;;;30.43;29.77;98425.88;5020721;28;20268;-59
2022/07/04 09:22:47;;;;;;;4.80;2.47;;;;;;;30.46;29.23;98423.56;5020927;28;20242;-58
2022/07/04 09:25:16;;;;;;;3.88;2.42;;;;;;;30.57;30.28;98420.09;5023082;28;20646;-58
2022/07/04 09:27:47;;;;;;;4.82;2.83;;;;;;;30.65;30.57;98419.75;5024966;28;20184;-58
2022/07/04 09:30:21;;;;;;;3.85;3.55;;;;;;;30.71;30.54;98418.84;5024075;28;20205;-58
2022/07/04 09:32:50;;;;;;;4.63;2.63;;;;;;;30.74;29.80;98412.22;5026446;28;20182;-58
2022/07/04 09:35:18;;;;;;;5.55;2.20;;;;;;;30.83;30.37;98416.16;5021112;28;20169;-58
2022/07/04 09:37:50;;;;;;;3.83;2.20;;;;;;;30.94;30.01;98415.31;5020892;28;20244;-58
2022/07/04 09:40:27;;;;;;;4.43;2.30;;;;;;;31.00;28.38;98415.22;5019098;28;20210;-58
2022/07/04 09:42:54;;;;;;;5.90;2.40;;;;;;;31.01;27.92;98408.03;5019825;28;20193;-58
2022/07/04 09:45:26;;;;;;;4.97;2.00;;;;;;;31.04;27.07;98407.53;5022878;28;20213;-58
2022/07/04 09:47:57;;;;;;;5.55;2.10;;;;;;;31.10;26.89;98418.13;5019639;28;20566;-58
2022/07/04 09:50:25;;;;;;;4.10;1.98;;;;;;;31.15;26.28;98410.19;5025308;28;20185;-58
2022/07/04 09:52:59;;;;;;;2.47;1.80;;;;;;;31.20;25.39;98418.38;5020179;28;20196;-58
2022/07/04 09:55:28;;;;;;;5.43;2.08;;;;;;;31.29;26.03;98416.09;5020503;28;20258;-58
2022/07/04 09:57:56;;;;;;;2.05;1.50;;;;;;;31.45;25.83;98421.56;5022290;28;20651;-58
2022/07/04 10:00:26;;;;;;;2.08;1.63;;;;;;;31.51;25.52;98412.56;5020883;28;20251;-58
2022/07/04 10:02:53;;;;;;;3.80;1.45;;;;;;;31.72;22.86;98427.19;5018281;28;20232;-59
2022/07/04 10:05:36;;;;;;;3.38;1.55;;;;;;;31.64;22.24;98414.13;5020519;28;20201;-58
2022/07/04 10:08:04;;;;;;;4.03;1.70;;;;;;;31.71;22.13;98420.19;5023282;28;20225;-58
2022/07/04 10:10:34;;;;;;;2.45;1.50;;;;;;;31.86;22.95;98423.16;5014949;28;20186;-58
2022/07/04 10:13:04;;;;;;;1.80;1.70;;;;;;;31.92;24.06;98422.19;5017879;28;20260;-58
2022/07/04 10:15:30;;;;;;;2.30;1.90;;;;;;;32.05;24.70;98422.72;5017643;28;20178;-58
2022/07/04 10:17:56;;;;;;;3.35;1.95;;;;;;;32.15;23.58;98416.72;5014296;28;20194;-58
2022/07/04 10:20:21;;;;;;;1.70;1.60;;;;;;;32.23;24.53;98419.03;5016407;28;20197;-58
2022/07/04 10:22:47;;;;;;;1.77;1.58;;;;;;;32.37;25.04;98420.34;5017616;28;20186;-58
2022/07/04 10:25:13;;;;;;;2.65;2.10;;;;;;;32.51;24.98;98418.97;4999636;28;20280;-58
2022/07/04 10:27:39;;;;;;;2.83;1.95;;;;;;;32.44;23.94;98413.78;5004169;28;20281;-58
2022/07/04 10:30:09;;;;;;;4.43;2.05;;;;;;;32.61;24.42;98417.28;5024124;28;20679;-58
2022/07/04 10:32:36;;;;;;;7.25;2.05;;;;;;;32.77;25.40;98418.34;5024702;28;20639;-58
2022/07/04 10:35:02;;;;;;;7.45;2.13;;;;;;;32.76;25.22;98397.94;5014014;28;20177;-59
2022/07/04 10:38:07;;;;;;;3.42;2.17;;;;;;;32.86;25.54;98406.94;5012275;28;20268;-59
2022/07/04 10:40:44;;;;;;;4.53;2.10;;;;;;;32.92;25.75;98416.69;5018737;28;21013;-59
2022/07/04 10:43:45;;;;;;;3.50;2.28;;;;;;;33.10;25.07;98408.34;5013420;28;20896;-57
2022/07/04 10:46:13;;;;;;;4.32;2.10;;;;;;;33.20;24.49;98411.16;5018485;28;20924;-58
2022/07/04 10:49:13;;;;;;;2.28;2.05;;;;;;;33.44;25.14;98403.69;5020499;28;20196;-58
2022/07/04 10:51:46;;;;;;;6.22;2.20;;;;;;;33.67;25.68;98398.88;5416309;22;20234;-67
2022/07/04 10:54:19;;;;;;;4.07;1.92;;;;;;;33.89;25.17;98402.38;5020177;28;20308;-66
2022/07/04 10:56:54;;;;;;;4.22;2.42;;;;;;;34.05;24.01;98403.31;5017028;28;20261;-66
2022/07/04 10:59:21;;;;;;;3.22;2.05;;;;;;;33.99;24.11;98401.66;5023080;28;20750;-66
2022/07/04 11:02:06;;;;;;;3.95;1.90;;;;;;;33.96;23.45;98383.34;5027032;28;20230;-66
2022/07/04 11:04:56;;;;;;;4.68;2.10;;;;;;;33.98;24.05;98383.91;5008895;28;20549;-66
2022/07/04 11:07:43;;;;;;;3.13;1.92;;;;;;;34.11;23.86;98392.38;5017653;28;20429;-66
2022/07/04 11:10:12;;;;;;;2.30;1.98;;;;;;;34.02;23.53;98393.88;5021416;28;20209;-66
2022/07/04 11:12:56;;;;;;;1.88;1.73;;;;;;;34.07;23.66;98385.06;5016821;28;21065;-66
2022/07/04 11:15:25;;;;;;;3.08;1.80;;;;;;;34.21;23.43;98392.44;5026640;28;20741;-68
2022/07/04 11:17:54;;;;;;;8.27;1.98;;;;;;;34.30;23.71;98384.75;5014843;28;20202;-66
2022/07/04 11:20:20;;;;;;;2.58;2.10;;;;;;;34.25;23.14;98381.97;5014896;28;20726;-66
2022/07/04 11:22:46;;;;;;;2.38;2.25;;;;;;;34.37;23.27;98379.97;5024022;28;20182;-66
2022/07/04 11:25:12;;;;;;;4.40;1.83;;;;;;;34.34;23.40;98381.28;5020885;28;20223;-66
2022/07/04 11:27:38;;;;;;;3.60;2.17;;;;;;;34.49;23.77;98377.91;5017015;28;20192;-66
2022/07/04 11:30:04;;;;;;;2.60;2.00;;;;;;;34.61;23.71;98381.22;5019120;28;21048;-66
2022/07/04 11:32:32;;;;;;;3.70;2.40;;;;;;;34.73;23.45;98390.72;5024425;28;20182;-66
2022/07/04 11:34:57;;;;;;;3.28;1.90;;;;;;;34.90;23.92;98372.53;5011989;28;20188;-65
2022/07/04 11:37:23;;;;;;;2.70;1.90;;;;;;;35.10;23.60;98378.03;5013931;28;20189;-66
2022/07/04 11:39:52;;;;;;;1.90;1.77;;;;;;;35.18;23.41;98380.22;5019329;28;20186;-66
2022/07/04 11:45:05;;;;;;;3.25;1.83;;;;;;;35.22;22.47;98373.25;5015366;28;20257;-66
2022/07/04 11:47:39;;;;;;;1.88;1.77;;;;;;;35.24;21.68;98376.50;4999530;28;20220;-66
2022/07/04 11:50:08;;;;;;;2.00;1.90;;;;;;;35.36;22.45;98366.31;5017715;28;20697;-66
2022/07/04 11:52:37;;;;;;;1.92;1.70;;;;;;;35.51;23.49;98363.69;5018660;28;20221;-65
2022/07/04 11:55:06;;;;;;;1.73;1.63;;;;;;;35.52;22.43;98357.22;5019291;28;20186;-66